CheckWX is a tool to help pilots better visualize weather data.  It is not intended as a substitute for an official pre-flight weather briefing.

15:22:36 UTC

LIBG METAR
Taranto-Grottaglie "Marcello Arlotta" Airport
Grottaglie, Italy
Current

33 mins ago

LIBG 261450Z 18009KT 9999 BKN015 15/15 Q1018
Observed
Jan-26 @ 14:50 UTC
Wind
  • 180° at 9 KTS
Visibility
10,000+ meters
Flight Rules
MVFR
Cloud Levels
  • Broken at 1,500' AGL
Temperature
15°C / 59°F
Dewpoint
15°C / 59°F
Humidity
100%
Altimeter
30.06" Hg
Pressure
1017.92 hPa
Previous

2 hours ago

LIBG 261350Z 19011KT 9999 BKN015 14/14 Q1018
Observed
Jan-26 @ 13:50 UTC
Wind
  • 190° at 11 KTS
Visibility
10,000+ meters
Flight Rules
MVFR
Cloud Levels
  • Broken at 1,500' AGL
Temperature
14°C / 57°F
Dewpoint
14°C / 57°F
Humidity
100%
Altimeter
30.06" Hg
Pressure
1017.92 hPa
Previous

3 hours ago

LIBG 261250Z 18010KT 7000 2000S -RA BKN015 13/13 Q1018
Observed
Jan-26 @ 12:50 UTC
Wind
  • 180° at 10 KTS
Visibility
7,000 meters
Flight Rules
MVFR
Conditions
Light Rain
Cloud Levels
  • Broken at 1,500' AGL
Temperature
13°C / 55°F
Dewpoint
13°C / 55°F
Humidity
100%
Altimeter
30.06" Hg
Pressure
1017.92 hPa